Sandcut, Indiana
Current Conditions -  °F | °C
As of 11:53 AM on Monday 22 Dec 2014 (Local Time) from KHUF Reporting Station
Overcast Overcast  
Wind Chill: 35°   Ceiling: 1800
Heat Index: 41°   Visibility: 9mi
Dew Point: 36°   Wind: 10mph
Humidity: 82%   Direction: 130°SE
Pressure: 29.85"   Gusts: NA
Location:  39.543°N, 87.3153°W
Report Text: KHUF 221653Z 13009KT 9SM SCT009 OVC018 05/02 A2985 RMK AO2 SLP113 T00500022
Loading
Personal Weather Stations






























Interactive Weather Map New forecast layout! Learn more

10-Day Weather Forecast

Advertisements
Track Severe Weather on mobile